createdAt,value
2019-03-21T00:00:30.918Z,4.16
2019-03-21T00:03:20.851Z,4.09
2019-03-21T00:06:10.915Z,3.96
2019-03-21T00:09:00.360Z,3.97
2019-03-21T00:11:58.439Z,4.22
2019-03-21T00:14:50.727Z,4.43
2019-03-21T00:17:49.617Z,4.47
2019-03-21T00:20:39.621Z,4.40
2019-03-21T00:23:29.429Z,4.39
2019-03-21T00:26:19.735Z,4.22
2019-03-21T00:29:09.304Z,3.99
2019-03-21T00:31:58.968Z,3.88
2019-03-21T00:34:48.870Z,3.75
2019-03-21T00:37:38.459Z,3.63
2019-03-21T00:40:33.479Z,3.63
2019-03-21T00:43:23.086Z,3.61
2019-03-21T00:46:13.214Z,3.60
2019-03-21T00:49:03.360Z,3.55
2019-03-21T00:51:53.411Z,3.46
2019-03-21T00:54:44.772Z,3.47
2019-03-21T00:57:34.948Z,3.39
2019-03-21T01:00:31.051Z,3.31
2019-03-21T01:03:20.778Z,3.36
2019-03-21T01:06:11.013Z,3.33
2019-03-21T01:09:00.849Z,3.14
2019-03-21T01:11:52.396Z,3.01
2019-03-21T01:14:42.283Z,2.97
2019-03-21T01:17:31.213Z,2.86
2019-03-21T01:20:27.860Z,2.78
2019-03-21T01:23:17.025Z,2.75
2019-03-21T01:26:07.365Z,2.77
2019-03-21T01:28:57.281Z,2.75
2019-03-21T01:31:46.478Z,2.82
2019-03-21T01:34:36.588Z,2.87
2019-03-21T01:37:26.722Z,2.85
2019-03-21T01:40:19.279Z,2.79
2019-03-21T01:43:08.766Z,2.78
2019-03-21T01:45:58.071Z,2.76
2019-03-21T01:48:47.761Z,2.71
2019-03-21T01:51:37.420Z,2.69
2019-03-21T01:54:27.101Z,2.58
2019-03-21T01:57:16.821Z,2.48
2019-03-21T02:00:10.087Z,2.44
2019-03-21T02:03:00.112Z,2.48
2019-03-21T02:05:50.488Z,2.59
2019-03-21T02:08:40.315Z,2.76
2019-03-21T02:11:29.638Z,2.86
2019-03-21T02:14:19.933Z,2.85
2019-03-21T05:00:40.749Z,2.50
2019-03-21T05:07:02.177Z,2.35
2019-03-21T05:09:52.022Z,2.43
2019-03-21T05:12:42.024Z,2.21
2019-03-21T05:15:34.930Z,2.05
2019-03-21T05:18:28.604Z,1.93
2019-03-21T05:24:39.332Z,1.81
2019-03-21T05:27:28.208Z,1.75
2019-03-21T05:30:20.814Z,1.75
2019-03-21T05:33:09.940Z,1.99
2019-03-21T05:35:59.384Z,2.25
2019-03-21T05:38:49.964Z,2.46
2019-03-21T05:41:39.590Z,2.63
2019-03-21T05:44:33.578Z,2.75
2019-03-21T05:47:24.063Z,2.89
2019-03-21T05:53:43.272Z,2.84
2019-03-21T05:56:33.205Z,2.83
2019-03-21T05:59:23.000Z,2.83
2019-03-21T06:02:12.645Z,2.79
2019-03-21T06:05:02.770Z,2.81
2019-03-21T06:11:45.344Z,2.82
2019-03-21T06:14:35.872Z,2.79
2019-03-21T06:17:25.437Z,2.79
2019-03-21T06:20:26.130Z,2.80
2019-03-21T06:23:48.236Z,2.75
2019-03-21T06:27:02.092Z,2.79
2019-03-21T06:29:51.807Z,2.89
2019-03-21T06:32:41.168Z,2.98
2019-03-21T06:35:31.422Z,3.13
2019-03-21T06:38:21.319Z,3.27
2019-03-21T06:41:11.249Z,3.42
2019-03-21T06:44:00.913Z,3.57
2019-03-21T06:46:50.852Z,3.80
2019-03-21T06:49:40.837Z,3.92
2019-03-21T06:52:30.453Z,4.04
2019-03-21T06:55:20.117Z,4.17
2019-03-21T06:58:10.345Z,4.32
2019-03-21T07:01:01.172Z,4.51
2019-03-21T07:07:35.709Z,4.91
2019-03-21T07:17:00.681Z,5.25
2019-03-21T07:19:55.147Z,5.00
2019-03-21T07:22:45.012Z,4.93
2019-03-21T07:25:34.234Z,4.77
2019-03-21T07:28:24.238Z,4.62
2019-03-21T07:31:14.288Z,4.46
2019-03-21T07:34:04.451Z,4.49
2019-03-21T07:36:54.982Z,4.51
2019-03-21T07:39:44.654Z,4.68
2019-03-21T07:42:34.547Z,4.78
2019-03-21T07:45:24.330Z,5.02
2019-03-21T07:48:14.021Z,5.08
2019-03-21T07:51:03.413Z,5.20
2019-03-21T07:53:52.534Z,5.46
2019-03-21T07:56:42.287Z,5.62
2019-03-21T07:59:32.778Z,5.93
2019-03-21T08:02:22.084Z,6.27
2019-03-21T08:05:12.100Z,6.47
2019-03-21T08:08:01.993Z,6.56
2019-03-21T08:10:53.183Z,6.63
2019-03-21T08:13:43.285Z,6.76
2019-03-21T08:16:33.122Z,6.90
2019-03-21T08:19:22.419Z,7.12
2019-03-21T08:22:11.811Z,7.29
2019-03-21T08:25:01.864Z,7.52
2019-03-21T08:27:51.894Z,7.84
2019-03-21T08:31:29.682Z,8.00
2019-03-21T08:34:19.521Z,8.22
2019-03-21T08:37:09.493Z,8.51
2019-03-21T08:39:59.394Z,8.62
2019-03-21T08:42:48.789Z,8.79
2019-03-21T08:45:38.876Z,9.21
2019-03-21T08:48:39.585Z,9.41
2019-03-21T08:51:29.798Z,9.61
2019-03-21T09:01:22.338Z,9.87
2019-03-21T09:04:12.302Z,10.03
2019-03-21T09:07:01.983Z,9.90
2019-03-21T09:09:51.411Z,10.22
2019-03-21T09:12:42.613Z,10.66
2019-03-21T09:15:32.663Z,10.93
2019-03-21T09:18:21.844Z,11.00
2019-03-21T09:21:19.625Z,11.09
2019-03-21T09:24:03.872Z,11.46
2019-03-21T09:26:53.370Z,11.33
2019-03-21T09:29:53.121Z,11.74
2019-03-21T09:32:34.038Z,11.73
2019-03-21T09:35:24.206Z,11.73
2019-03-21T09:38:14.406Z,12.17
2019-03-21T09:41:03.572Z,12.53
2019-03-21T09:43:52.582Z,12.64
2019-03-21T09:46:50.919Z,12.72
2019-03-21T09:49:33.665Z,12.60
2019-03-21T09:52:22.835Z,12.75
2019-03-21T09:55:12.549Z,13.01
2019-03-21T09:58:02.020Z,13.12
2019-03-21T10:00:52.222Z,13.21
2019-03-21T10:03:41.176Z,13.46
2019-03-21T10:06:31.183Z,13.69
2019-03-21T10:09:20.937Z,13.50
2019-03-21T10:12:11.222Z,13.50
2019-03-21T10:15:00.404Z,13.73
2019-03-21T10:17:50.573Z,13.95
2019-03-21T10:20:39.391Z,13.78
2019-03-21T10:23:28.823Z,13.89
2019-03-21T10:26:18.083Z,14.00
2019-03-21T10:29:07.331Z,14.18
2019-03-21T10:31:56.701Z,14.25
2019-03-21T10:34:46.573Z,14.58
2019-03-21T10:37:36.524Z,14.63
2019-03-21T10:40:26.093Z,14.53
2019-03-21T10:43:15.447Z,14.61
2019-03-21T10:46:05.624Z,14.88
2019-03-21T10:48:55.873Z,14.83
2019-03-21T10:51:54.474Z,15.04
2019-03-21T10:54:36.181Z,15.03
2019-03-21T10:57:25.074Z,15.13
2019-03-21T11:00:14.850Z,15.23
2019-03-21T11:03:04.641Z,15.47
2019-03-21T11:05:54.128Z,15.86
2019-03-21T11:08:44.102Z,15.54
2019-03-21T11:11:34.039Z,15.76
2019-03-21T11:14:24.154Z,15.61
2019-03-21T11:17:14.771Z,16.13
2019-03-21T11:20:04.402Z,16.40
2019-03-21T11:22:55.810Z,16.45
2019-03-21T11:25:45.119Z,16.14
2019-03-21T11:28:34.241Z,16.24
2019-03-21T11:31:24.196Z,16.18
2019-03-21T11:34:14.588Z,16.42
2019-03-21T11:37:04.684Z,16.48
2019-03-21T11:39:54.630Z,16.45
2019-03-21T11:42:44.383Z,16.72
2019-03-21T11:45:34.310Z,16.73
2019-03-21T11:48:24.368Z,16.98
2019-03-21T11:51:13.551Z,16.75
2019-03-21T11:54:03.877Z,16.74
2019-03-21T11:56:54.036Z,16.81
2019-03-21T11:59:51.494Z,16.98
2019-03-21T12:02:34.308Z,16.96
2019-03-21T12:05:24.419Z,16.92
2019-03-21T12:08:13.799Z,17.12
2019-03-21T12:11:03.794Z,17.19
2019-03-21T12:13:53.972Z,16.94
2019-03-21T12:16:44.095Z,17.13
2019-03-21T12:19:34.197Z,16.74
2019-03-21T12:22:29.899Z,16.80
2019-03-21T12:25:15.609Z,17.04
2019-03-21T12:28:04.537Z,17.21
2019-03-21T12:30:53.737Z,17.40
2019-03-21T12:33:43.429Z,16.85
2019-03-21T12:36:34.644Z,17.25
2019-03-21T12:39:24.966Z,17.04
2019-03-21T12:42:15.125Z,17.20
2019-03-21T12:45:07.327Z,16.90
2019-03-21T12:47:57.614Z,17.20
2019-03-21T12:50:47.447Z,17.51
2019-03-21T12:53:37.752Z,17.48
2019-03-21T12:56:27.739Z,17.45
2019-03-21T12:59:17.363Z,17.21
2019-03-21T13:02:06.357Z,17.57
2019-03-21T13:04:56.953Z,17.55
2019-03-21T13:07:47.208Z,17.78
2019-03-21T13:10:37.187Z,17.57
2019-03-21T13:13:27.548Z,17.91
2019-03-21T13:16:16.710Z,17.94
2019-03-21T13:19:05.903Z,17.43
2019-03-21T13:21:55.947Z,17.51
2019-03-21T13:24:45.846Z,17.74
2019-03-21T13:27:35.970Z,17.77
2019-03-21T13:30:25.747Z,17.62
2019-03-21T13:33:15.082Z,17.87
2019-03-21T13:36:05.479Z,17.53
2019-03-21T13:38:55.621Z,17.81
2019-03-21T13:41:45.626Z,17.96
2019-03-21T13:44:35.003Z,17.62
2019-03-21T13:47:25.261Z,17.65
2019-03-21T13:50:14.940Z,17.83
2019-03-21T13:53:17.594Z,18.17
2019-03-21T13:55:56.513Z,17.74
2019-03-21T13:58:46.863Z,17.88
2019-03-21T14:01:37.220Z,17.70
2019-03-21T14:04:27.110Z,17.89
2019-03-21T14:07:16.602Z,17.77
2019-03-21T14:10:06.033Z,17.77
2019-03-21T14:12:56.013Z,18.12
2019-03-21T14:15:46.107Z,18.17
2019-03-21T14:18:36.393Z,17.81
2019-03-21T14:21:26.429Z,17.87
2019-03-21T14:24:15.902Z,18.06
2019-03-21T14:27:05.645Z,18.08
2019-03-21T14:30:01.251Z,18.07
2019-03-21T14:32:46.219Z,18.06
2019-03-21T14:35:36.102Z,17.77
2019-03-21T14:38:26.684Z,18.03
2019-03-21T14:41:16.189Z,17.84
2019-03-21T14:44:07.211Z,17.73
2019-03-21T14:46:56.530Z,17.54
2019-03-21T14:49:46.423Z,17.70
2019-03-21T14:52:36.345Z,17.75
2019-03-21T14:55:26.416Z,17.69
2019-03-21T14:58:16.290Z,17.91
2019-03-21T15:01:05.745Z,17.81
2019-03-21T15:03:55.618Z,17.54
2019-03-21T15:06:45.316Z,17.51
2019-03-21T15:09:34.619Z,17.35
2019-03-21T15:12:23.886Z,17.43
2019-03-21T15:15:14.058Z,17.33
2019-03-21T15:18:03.997Z,17.42
2019-03-21T15:20:55.602Z,17.26
2019-03-21T15:23:45.245Z,17.31
2019-03-21T15:26:35.427Z,17.01
2019-03-21T15:29:24.837Z,17.00
2019-03-21T15:32:14.379Z,17.06
2019-03-21T15:35:04.559Z,17.08
2019-03-21T15:37:54.817Z,17.05
2019-03-21T15:40:44.281Z,16.99
2019-03-21T15:43:34.201Z,16.87
2019-03-21T15:46:24.054Z,16.99
2019-03-21T15:49:15.362Z,16.90
2019-03-21T15:52:04.711Z,16.93
2019-03-21T15:54:54.978Z,16.80
2019-03-21T15:57:45.675Z,16.83
2019-03-21T16:00:39.289Z,16.69
2019-03-21T16:03:28.417Z,16.74
2019-03-21T16:06:18.448Z,16.62
2019-03-21T16:09:09.020Z,16.46
2019-03-21T16:11:58.633Z,16.36
2019-03-21T16:14:49.405Z,16.21
2019-03-21T16:17:38.366Z,16.15
2019-03-21T16:20:28.531Z,16.25
2019-03-21T16:23:18.861Z,16.24
2019-03-21T16:26:08.109Z,16.27
2019-03-21T16:28:58.254Z,16.26
2019-03-21T16:31:48.399Z,16.15
2019-03-21T16:34:38.034Z,15.99
2019-03-21T16:37:28.387Z,15.96
2019-03-21T16:40:18.912Z,15.64
2019-03-21T16:43:08.831Z,15.47
2019-03-21T16:45:59.044Z,15.49
2019-03-21T16:48:48.969Z,15.34
2019-03-21T16:51:39.037Z,15.06
2019-03-21T16:54:30.390Z,14.91
2019-03-21T16:57:20.397Z,14.77
2019-03-21T17:00:10.474Z,14.58
2019-03-21T17:03:02.122Z,14.43
2019-03-21T17:05:52.789Z,14.25
2019-03-21T17:08:42.405Z,14.20
2019-03-21T17:11:32.094Z,13.95
2019-03-21T17:14:22.027Z,13.67
2019-03-21T17:17:12.108Z,13.18
2019-03-21T17:20:03.768Z,13.18
2019-03-21T17:22:55.237Z,12.86
2019-03-21T17:25:45.036Z,12.51
2019-03-21T17:28:34.818Z,12.37
2019-03-21T17:31:24.569Z,12.16
2019-03-21T17:34:14.335Z,11.85
2019-03-21T17:37:04.430Z,11.61
2019-03-21T17:39:54.633Z,11.32
2019-03-21T17:42:45.257Z,11.11
2019-03-21T17:45:35.581Z,10.90
2019-03-21T17:48:25.861Z,10.56
2019-03-21T17:51:15.011Z,10.38
2019-03-21T17:54:03.991Z,10.17
2019-03-21T17:56:52.878Z,10.01
2019-03-21T17:59:42.910Z,9.85
2019-03-21T18:02:33.385Z,9.76
2019-03-21T18:05:23.479Z,9.52
2019-03-21T18:08:13.758Z,9.37
2019-03-21T18:11:02.874Z,9.26
2019-03-21T18:13:52.890Z,9.09
2019-03-21T18:16:41.984Z,8.97
2019-03-21T18:19:31.556Z,8.86
2019-03-21T18:22:21.476Z,8.71
2019-03-21T18:25:12.691Z,8.61
2019-03-21T18:28:02.804Z,8.52
2019-03-21T18:30:51.829Z,8.40
2019-03-21T18:33:41.189Z,8.30
2019-03-21T18:36:31.465Z,8.21
2019-03-21T18:39:21.417Z,8.07
2019-03-21T18:42:11.465Z,7.96
2019-03-21T18:45:00.608Z,7.89
2019-03-21T18:47:50.506Z,7.78
2019-03-21T18:50:40.353Z,7.68
2019-03-21T18:53:30.287Z,7.63
2019-03-21T18:56:19.704Z,7.56
2019-03-21T18:59:09.108Z,7.48
2019-03-21T19:01:59.180Z,7.42
2019-03-21T19:04:48.522Z,7.36
2019-03-21T19:07:38.281Z,7.34
2019-03-21T19:10:28.655Z,7.30
2019-03-21T19:13:18.742Z,7.24
2019-03-21T19:16:07.910Z,7.22
2019-03-21T19:18:57.596Z,7.16
2019-03-21T19:21:47.772Z,7.17
2019-03-21T19:24:37.473Z,7.21
2019-03-21T19:27:27.272Z,7.23
2019-03-21T19:30:16.617Z,7.16
2019-03-21T19:33:07.303Z,7.13
2019-03-21T19:35:57.188Z,7.08
2019-03-21T19:38:46.844Z,7.05
2019-03-21T19:41:36.765Z,7.04
2019-03-21T19:44:26.668Z,6.96
2019-03-21T19:47:23.854Z,6.97
2019-03-21T19:50:08.878Z,6.90
2019-03-21T19:52:58.625Z,6.86
2019-03-21T19:55:48.950Z,6.79
2019-03-21T19:58:38.203Z,6.77
2019-03-21T20:01:29.001Z,6.82
2019-03-21T20:04:18.788Z,6.89
2019-03-21T20:07:08.041Z,6.84
2019-03-21T20:09:56.972Z,6.77
2019-03-21T20:12:47.487Z,6.71
2019-03-21T20:15:36.850Z,6.70
2019-03-21T20:18:26.649Z,6.71
2019-03-21T20:21:16.948Z,6.63
2019-03-21T20:24:07.059Z,6.64
2019-03-21T20:26:57.326Z,6.62
2019-03-21T20:29:46.209Z,6.72
2019-03-21T20:32:36.270Z,6.73
2019-03-21T20:35:26.329Z,6.72
2019-03-21T20:38:16.262Z,6.71
2019-03-21T20:41:05.329Z,6.65
2019-03-21T20:43:55.088Z,6.61
2019-03-21T20:46:44.253Z,6.54
2019-03-21T20:49:33.534Z,6.53
2019-03-21T20:52:23.356Z,6.54
2019-03-21T20:55:13.669Z,6.53
2019-03-21T20:58:03.433Z,6.48
2019-03-21T21:00:53.397Z,6.44
2019-03-21T21:03:43.687Z,6.41
2019-03-21T21:06:33.616Z,6.35
2019-03-21T21:09:22.811Z,6.33
2019-03-21T21:12:12.801Z,6.31
2019-03-21T21:15:02.634Z,6.32
2019-03-21T21:17:52.562Z,6.23
2019-03-21T21:20:42.448Z,6.18
2019-03-21T21:23:31.960Z,6.20
2019-03-21T21:26:22.041Z,6.11
2019-03-21T21:29:12.259Z,6.08
2019-03-21T21:32:02.063Z,6.06
2019-03-21T21:34:54.476Z,6.06
2019-03-21T21:37:42.884Z,6.38
2019-03-21T21:40:34.403Z,6.74
2019-03-21T21:43:24.368Z,6.83
2019-03-21T21:46:14.061Z,6.71
2019-03-21T21:49:04.471Z,6.69
2019-03-21T21:51:54.044Z,6.72
2019-03-21T21:54:43.896Z,6.42
2019-03-21T21:57:34.489Z,6.30
2019-03-21T22:00:24.566Z,6.23
2019-03-21T22:03:14.417Z,6.12
2019-03-21T22:06:03.847Z,6.12
2019-03-21T22:08:53.052Z,6.13
2019-03-21T22:11:43.135Z,6.23
2019-03-21T22:14:32.605Z,6.46
2019-03-21T22:17:22.283Z,6.70
2019-03-21T22:20:12.305Z,6.83
2019-03-21T22:23:02.009Z,7.05
2019-03-21T22:25:51.347Z,7.14
2019-03-21T22:28:41.592Z,7.08
2019-03-21T22:31:31.581Z,7.02
2019-03-21T22:34:21.677Z,6.86
2019-03-21T22:37:10.776Z,6.71
2019-03-21T22:40:02.466Z,6.71
2019-03-21T22:42:51.385Z,6.69
2019-03-21T22:45:41.060Z,6.77
2019-03-21T22:48:31.189Z,6.86
2019-03-21T22:51:21.357Z,6.93
2019-03-21T22:54:11.217Z,6.85
2019-03-21T22:57:01.587Z,6.78
2019-03-21T22:59:51.484Z,6.86
2019-03-21T23:02:40.610Z,6.98
2019-03-21T23:05:30.569Z,6.93
2019-03-21T23:08:20.185Z,6.87
2019-03-21T23:11:09.748Z,6.89
2019-03-21T23:13:58.802Z,7.00
2019-03-21T23:16:48.381Z,7.01
2019-03-21T23:19:38.257Z,7.04
2019-03-21T23:22:27.450Z,7.17
2019-03-21T23:25:17.553Z,7.41
2019-03-21T23:28:07.370Z,7.49
2019-03-21T23:30:57.571Z,7.54
2019-03-21T23:33:47.778Z,7.56
2019-03-21T23:36:38.000Z,7.56
2019-03-21T23:39:28.162Z,7.61
2019-03-21T23:42:17.881Z,7.79
2019-03-21T23:45:07.253Z,7.98
2019-03-21T23:47:57.743Z,8.03
2019-03-21T23:50:48.082Z,8.06
2019-03-21T23:53:38.098Z,8.06
2019-03-21T23:56:28.092Z,8.16
2019-03-21T23:59:18.030Z,8.18
